createdAt,value
2023-01-28T00:01:06.733Z,100956.63
2023-01-28T00:03:35.273Z,100972.09
2023-01-28T00:06:04.034Z,100973.88
2023-01-28T00:08:35.839Z,100964.41
2023-01-28T00:11:04.379Z,100965.38
2023-01-28T00:13:32.227Z,100964.50
2023-01-28T00:16:00.547Z,100975.72
2023-01-28T00:18:28.374Z,100970.53
2023-01-28T00:20:59.847Z,100973.88
2023-01-28T00:23:27.975Z,100959.16
2023-01-28T00:25:59.274Z,100961.75
2023-01-28T00:28:26.986Z,100963.50
2023-01-28T00:30:55.979Z,100959.06
2023-01-28T00:33:24.023Z,100948.38
2023-01-28T00:35:59.016Z,100949.22
2023-01-28T00:38:26.718Z,100945.78
2023-01-28T00:40:54.598Z,100946.63
2023-01-28T00:43:23.641Z,100953.72
2023-01-28T00:45:52.504Z,100946.63
2023-01-28T00:48:20.433Z,100956.19
2023-01-28T00:50:49.295Z,100958.00
2023-01-28T00:53:17.224Z,100966.56
2023-01-28T00:55:45.019Z,100966.41
2023-01-28T00:58:12.807Z,100958.50
2023-01-28T01:00:43.212Z,100956.72
2023-01-28T01:03:10.882Z,100953.28
2023-01-28T01:05:38.699Z,100938.28
2023-01-28T01:08:06.928Z,100968.88
2023-01-28T01:10:41.906Z,100969.59
2023-01-28T01:13:10.140Z,100981.50
2023-01-28T01:15:37.979Z,100978.81
2023-01-28T01:18:07.404Z,100974.22
2023-01-28T01:20:39.958Z,100975.69
2023-01-28T01:23:07.815Z,100970.47
2023-01-28T01:25:35.477Z,100936.97
2023-01-28T01:28:05.989Z,100967.03
2023-01-28T01:30:33.657Z,100960.78
2023-01-28T01:33:03.476Z,100958.41
2023-01-28T01:35:32.546Z,100958.16
2023-01-28T01:38:00.408Z,100960.09
2023-01-28T01:40:29.869Z,100958.41
2023-01-28T01:42:57.836Z,100963.63
2023-01-28T01:45:25.525Z,100961.00
2023-01-28T01:47:57.274Z,100921.22
2023-01-28T01:50:26.717Z,100961.31
2023-01-28T01:52:57.292Z,100957.78
2023-01-28T01:55:26.954Z,100892.91
2023-01-28T01:57:56.058Z,100968.56
2023-01-28T02:00:26.783Z,100960.53
2023-01-28T02:02:54.735Z,100948.03
2023-01-28T02:05:23.078Z,100964.75
2023-01-28T02:07:52.070Z,100971.56
2023-01-28T02:10:21.313Z,100961.88
2023-01-28T02:12:51.502Z,100975.22
2023-01-28T02:15:20.391Z,100981.31
2023-01-28T02:17:48.550Z,100976.13
2023-01-28T02:20:19.230Z,100982.03
2023-01-28T02:23:17.142Z,100982.03
2023-01-28T02:26:02.071Z,100990.59
2023-01-28T02:28:33.564Z,100986.13
2023-01-28T02:31:04.765Z,100945.81
2023-01-28T02:33:36.019Z,100990.81
2023-01-28T02:36:07.451Z,100989.88
2023-01-28T02:38:37.428Z,100977.34
2023-01-28T02:41:06.886Z,100985.31
2023-01-28T02:43:36.886Z,100992.19
2023-01-28T02:46:31.783Z,101002.38
2023-01-28T02:48:59.586Z,100997.19
2023-01-28T02:51:32.983Z,100998.03
2023-01-28T02:54:01.657Z,100992.63
2023-01-28T02:56:31.209Z,101008.78
2023-01-28T02:59:22.887Z,100974.38
2023-01-28T03:01:50.626Z,100983.50
2023-01-28T03:04:20.976Z,100990.38
2023-01-28T03:06:51.260Z,100990.47
2023-01-28T03:09:24.733Z,100987.69
2023-01-28T03:12:14.277Z,101011.19
2023-01-28T03:15:01.425Z,100992.91
2023-01-28T03:17:48.424Z,100987.72
2023-01-28T03:20:34.092Z,100992.06
2023-01-28T03:23:21.437Z,100998.72
2023-01-28T03:26:09.296Z,100986.53
2023-01-28T03:28:54.354Z,100982.38
2023-01-28T03:31:41.028Z,100982.16
2023-01-28T03:34:27.176Z,100984.03
2023-01-28T03:36:54.853Z,100916.19
2023-01-28T03:39:23.923Z,100960.03
2023-01-28T03:42:01.541Z,100971.13
2023-01-28T03:44:46.671Z,100978.94
2023-01-28T03:47:15.811Z,100979.84
2023-01-28T03:49:45.632Z,100978.22
2023-01-28T03:52:13.488Z,100984.41
2023-01-28T03:54:41.257Z,100988.88
2023-01-28T03:57:09.119Z,100991.47
2023-01-28T03:59:36.875Z,100989.53
2023-01-28T04:02:05.440Z,100986.94
2023-01-28T04:04:34.620Z,100995.50
2023-01-28T04:07:02.309Z,100998.09
2023-01-28T04:09:30.106Z,100994.84
2023-01-28T04:11:57.815Z,101000.59
2023-01-28T04:14:25.619Z,100977.66
2023-01-28T04:16:54.824Z,100994.56
2023-01-28T04:19:22.596Z,100991.81
2023-01-28T04:21:53.976Z,100994.41
2023-01-28T04:24:21.854Z,100979.50
2023-01-28T04:26:49.713Z,101004.78
2023-01-28T04:29:17.413Z,100945.88
2023-01-28T04:31:46.458Z,101007.47
2023-01-28T04:34:14.191Z,101015.25
2023-01-28T04:36:41.956Z,101011.03
2023-01-28T04:39:11.070Z,101006.53
2023-01-28T04:41:38.784Z,101013.63
2023-01-28T04:44:06.484Z,101015.41
2023-01-28T04:46:34.286Z,101023.22
2023-01-28T04:49:02.296Z,101022.50
2023-01-28T04:51:30.075Z,101023.34
2023-01-28T04:53:57.831Z,100992.41
2023-01-28T04:56:26.999Z,101026.88
2023-01-28T04:58:54.713Z,101018.16
2023-01-28T05:01:22.459Z,101023.22
2023-01-28T05:03:52.076Z,101029.97
2023-01-28T05:06:19.779Z,101021.41
2023-01-28T05:08:47.506Z,101022.28
2023-01-28T05:11:15.330Z,101015.25
2023-01-28T05:13:44.585Z,101032.28
2023-01-28T05:16:12.519Z,101024.78
2023-01-28T05:18:40.452Z,101022.13
2023-01-28T05:23:42.472Z,101010.75
2023-01-28T05:26:10.132Z,101014.13
2023-01-28T05:28:37.966Z,101009.66
2023-01-28T05:31:07.576Z,101015.81
2023-01-28T05:33:35.469Z,101019.34
2023-01-28T05:36:03.163Z,101015.91
2023-01-28T05:38:31.252Z,101012.25
2023-01-28T05:40:59.023Z,101028.69
2023-01-28T05:43:26.809Z,101023.53
2023-01-28T05:45:54.717Z,101027.09
2023-01-28T05:48:24.101Z,101026.44
2023-01-28T05:50:51.840Z,101024.69
2023-01-28T05:53:19.607Z,101025.53
2023-01-28T05:55:49.156Z,101029.63
2023-01-28T05:58:17.146Z,101040.25
2023-01-28T06:00:44.836Z,101053.97
2023-01-28T06:03:12.618Z,101052.16
2023-01-28T06:05:41.663Z,101059.81
2023-01-28T06:08:10.224Z,101050.94
2023-01-28T06:10:37.912Z,101052.72
2023-01-28T06:13:05.717Z,101056.13
2023-01-28T06:15:33.504Z,101056.81
2023-01-28T06:18:02.398Z,101060.06
2023-01-28T06:20:30.079Z,101061.78
2023-01-28T06:22:59.094Z,101061.75
2023-01-28T06:25:27.040Z,101055.00
2023-01-28T06:27:54.956Z,101051.56
2023-01-28T06:30:22.698Z,101050.03
2023-01-28T06:32:55.360Z,101050.94
2023-01-28T06:35:23.185Z,101055.13
2023-01-28T06:37:50.819Z,101051.53
2023-01-28T06:40:20.227Z,101044.59
2023-01-28T06:42:47.872Z,101053.47
2023-01-28T06:45:15.740Z,101052.63
2023-01-28T06:47:43.400Z,101041.94
2023-01-28T06:50:12.635Z,101065.50
2023-01-28T06:52:41.330Z,101047.09
2023-01-28T06:55:09.658Z,101062.09
2023-01-28T06:57:40.345Z,101061.94
2023-01-28T07:00:10.495Z,101069.91
2023-01-28T07:02:38.213Z,101057.75
2023-01-28T07:05:06.535Z,101070.91
2023-01-28T07:07:34.288Z,101084.69
2023-01-28T07:10:02.132Z,101078.56
2023-01-28T07:12:29.822Z,101065.53
2023-01-28T07:14:58.964Z,101055.97
2023-01-28T07:17:26.726Z,101055.00
2023-01-28T07:19:54.378Z,101044.59
2023-01-28T07:22:22.039Z,101057.66
2023-01-28T07:24:50.175Z,101047.22
2023-01-28T07:27:17.857Z,101049.94
2023-01-28T07:29:45.496Z,101057.81
2023-01-28T07:32:14.652Z,101056.91
2023-01-28T07:34:43.155Z,101061.19
2023-01-28T07:37:10.887Z,101058.66
2023-01-28T07:39:38.625Z,101049.97
2023-01-28T07:42:06.616Z,101063.00
2023-01-28T07:44:35.828Z,101062.13
2023-01-28T07:47:03.709Z,101068.94
2023-01-28T07:49:32.927Z,101057.47
2023-01-28T07:52:00.684Z,101058.41
2023-01-28T07:54:28.528Z,101065.25
2023-01-28T07:56:56.302Z,101061.91
2023-01-28T07:59:24.210Z,101075.88
2023-01-28T08:01:54.934Z,101077.84
2023-01-28T08:04:23.234Z,101084.78
2023-01-28T08:06:52.613Z,101083.19
2023-01-28T08:09:20.551Z,101080.75
2023-01-28T08:11:48.378Z,101082.50
2023-01-28T08:14:16.286Z,101086.63
2023-01-28T08:16:44.398Z,101074.38
2023-01-28T08:19:12.305Z,101088.38
2023-01-28T08:21:40.092Z,101090.72
2023-01-28T08:24:09.678Z,101101.16
2023-01-28T08:26:37.542Z,101103.00
2023-01-28T08:29:05.619Z,101100.44
2023-01-28T08:31:33.483Z,101112.75
2023-01-28T08:34:02.316Z,101115.41
2023-01-28T08:36:30.211Z,101123.38
2023-01-28T08:38:57.934Z,101122.72
2023-01-28T08:41:29.228Z,101126.06
2023-01-28T08:43:56.876Z,101124.47
2023-01-28T08:46:25.735Z,101126.31
2023-01-28T08:48:53.446Z,101128.13
2023-01-28T08:51:21.212Z,101128.78
2023-01-28T08:53:48.842Z,101138.22
2023-01-28T08:56:16.675Z,101119.78
2023-01-28T08:58:46.033Z,101139.09
2023-01-28T09:01:13.850Z,101136.25
2023-01-28T09:03:41.561Z,101155.53
2023-01-28T09:06:10.612Z,101143.66
2023-01-28T09:08:38.351Z,101158.28
2023-01-28T09:11:06.309Z,101166.09
2023-01-28T09:13:33.988Z,101058.34
2023-01-28T09:16:05.498Z,101168.66
2023-01-28T09:18:33.409Z,101165.13
2023-01-28T09:21:01.100Z,101194.81
2023-01-28T09:24:06.370Z,101193.94
2023-01-28T09:26:34.539Z,101191.69
2023-01-28T09:29:02.479Z,101168.53
2023-01-28T09:31:31.850Z,101196.13
2023-01-28T09:33:59.681Z,101191.06
2023-01-28T09:36:27.328Z,101198.91
2023-01-28T09:38:55.327Z,101146.59
2023-01-28T09:41:26.714Z,101203.22
2023-01-28T09:44:04.714Z,101196.19
2023-01-28T09:46:34.967Z,101165.72
2023-01-28T09:49:05.136Z,101183.88
2023-01-28T09:51:34.954Z,101195.78
2023-01-28T09:54:04.775Z,101197.66
2023-01-28T09:56:33.559Z,101200.50
2023-01-28T09:59:01.362Z,101171.25
2023-01-28T10:01:39.931Z,101235.19
2023-01-28T10:04:13.612Z,101201.31
2023-01-28T10:06:46.893Z,101211.63
2023-01-28T10:09:22.624Z,101173.38
2023-01-28T10:11:57.671Z,101204.75
2023-01-28T10:14:29.844Z,101198.72
2023-01-28T10:17:01.632Z,101190.88
2023-01-28T10:19:31.191Z,101174.19
2023-01-28T10:22:01.573Z,101195.69
2023-01-28T10:24:31.307Z,101179.84
2023-01-28T10:26:59.203Z,101199.94
2023-01-28T10:29:28.184Z,101171.63
2023-01-28T10:31:56.975Z,101188.28
2023-01-28T10:34:26.656Z,101202.16
2023-01-28T10:36:55.632Z,101196.72
2023-01-28T10:39:24.642Z,101184.34
2023-01-28T10:41:58.263Z,101188.94
2023-01-28T10:44:32.006Z,101178.44
2023-01-28T10:47:03.311Z,101173.38
2023-01-28T10:49:33.020Z,101190.22
2023-01-28T10:52:00.875Z,101187.84
2023-01-28T10:54:29.484Z,101122.94
2023-01-28T10:56:58.776Z,101179.91
2023-01-28T10:59:27.714Z,101180.19
2023-01-28T11:01:56.209Z,101162.50
2023-01-28T11:04:25.381Z,101183.19
2023-01-28T11:06:59.112Z,101188.69
2023-01-28T11:09:32.439Z,101195.75
2023-01-28T11:12:14.345Z,101213.19
2023-01-28T11:14:50.529Z,101201.00
2023-01-28T11:17:29.263Z,101200.72
2023-01-28T11:19:59.572Z,101155.59
2023-01-28T11:22:54.571Z,101182.09
2023-01-28T11:25:27.945Z,101192.00
2023-01-28T11:28:06.243Z,101224.22
2023-01-28T11:33:06.154Z,101153.81
2023-01-28T11:35:33.925Z,101217.53
2023-01-28T11:38:03.212Z,101225.16
2023-01-28T11:40:31.037Z,101223.00
2023-01-28T11:42:59.910Z,101222.97
2023-01-28T11:45:33.933Z,101214.50
2023-01-28T11:48:08.015Z,101203.72
2023-01-28T11:50:41.085Z,101199.19
2023-01-28T11:53:53.387Z,101195.25
2023-01-28T11:56:28.499Z,101191.78
2023-01-28T11:59:04.779Z,101195.59
2023-01-28T12:01:40.892Z,101193.94
2023-01-28T12:04:24.990Z,101197.69
2023-01-28T12:07:05.517Z,101184.88
2023-01-28T12:09:40.555Z,101185.31
2023-01-28T12:12:20.820Z,101165.69
2023-01-28T12:15:05.282Z,101137.72
2023-01-28T12:17:38.201Z,101183.88
2023-01-28T12:20:11.493Z,101196.03
2023-01-28T12:23:06.680Z,101194.66
2023-01-28T12:25:44.243Z,101184.88
2023-01-28T12:28:16.919Z,101194.44
2023-01-28T12:30:59.373Z,101193.38
2023-01-28T12:33:47.572Z,101169.22
2023-01-28T12:36:22.353Z,101175.84
2023-01-28T12:38:54.301Z,101142.72
2023-01-28T12:41:24.626Z,101160.00
2023-01-28T12:43:55.129Z,101108.03
2023-01-28T12:46:38.961Z,101138.88
2023-01-28T12:49:08.145Z,101127.03
2023-01-28T12:51:39.576Z,101092.84
2023-01-28T12:54:10.201Z,101130.06
2023-01-28T12:56:41.144Z,101109.94
2023-01-28T12:59:12.536Z,101129.38
2023-01-28T13:01:43.008Z,101087.72
2023-01-28T13:04:14.932Z,101104.88
2023-01-28T13:06:43.343Z,101079.84
2023-01-28T13:09:15.212Z,101073.88
2023-01-28T13:11:44.549Z,101060.31
2023-01-28T13:14:13.807Z,101058.25
2023-01-28T13:16:41.584Z,100981.94
2023-01-28T13:19:22.856Z,101043.78
2023-01-28T13:21:50.751Z,101037.28
2023-01-28T13:24:32.804Z,101021.34
2023-01-28T13:27:12.672Z,101018.66
2023-01-28T13:29:40.670Z,101064.75
2023-01-28T13:32:28.386Z,101080.63
2023-01-28T13:34:59.281Z,101066.53
2023-01-28T13:37:31.386Z,101099.66
2023-01-28T13:40:03.141Z,101097.63
2023-01-28T13:42:32.453Z,101104.34
2023-01-28T13:45:19.952Z,101109.16
2023-01-28T13:47:49.260Z,101076.03
2023-01-28T13:50:17.779Z,101050.09
2023-01-28T13:52:47.613Z,101068.94
2023-01-28T13:55:33.701Z,101082.91
2023-01-28T13:58:20.938Z,101107.59
2023-01-28T14:01:27.259Z,101124.91
2023-01-28T14:04:45.560Z,101138.75
2023-01-28T14:07:38.291Z,101130.69
2023-01-28T14:10:28.106Z,101116.81
2023-01-28T14:13:13.861Z,101113.31
2023-01-28T14:16:03.365Z,101124.56
2023-01-28T14:18:33.751Z,101097.91
2023-01-28T14:21:02.740Z,101072.88
2023-01-28T14:23:32.297Z,101139.59
2023-01-28T14:26:07.135Z,101129.09
2023-01-28T14:28:42.397Z,101128.97
2023-01-28T14:31:12.754Z,101118.38
2023-01-28T14:33:40.600Z,101107.88
2023-01-28T14:36:11.237Z,101121.06
2023-01-28T14:38:40.516Z,101109.00
2023-01-28T14:41:09.004Z,101111.63
2023-01-28T14:43:38.261Z,101095.03
2023-01-28T14:46:14.746Z,101097.41
2023-01-28T14:48:45.948Z,101095.47
2023-01-28T14:51:34.313Z,101091.81
2023-01-28T14:54:18.778Z,101081.88
2023-01-28T14:56:55.614Z,101063.28
2023-01-28T14:59:26.123Z,101012.00
2023-01-28T15:01:56.782Z,101053.94
2023-01-28T15:04:25.930Z,101055.41
2023-01-28T15:06:53.776Z,100998.72
2023-01-28T15:09:22.167Z,101073.09
2023-01-28T15:11:51.455Z,101084.91
2023-01-28T15:14:22.729Z,101073.75
2023-01-28T15:16:52.038Z,101079.03
2023-01-28T15:19:23.207Z,101085.91
2023-01-28T15:21:52.772Z,101039.66
2023-01-28T15:24:20.484Z,101085.59
2023-01-28T15:26:48.426Z,101090.69
2023-01-28T15:29:25.178Z,101062.75
2023-01-28T15:31:54.625Z,101090.03
2023-01-28T15:34:23.460Z,101104.72
2023-01-28T15:36:51.227Z,101089.53
2023-01-28T15:39:20.280Z,101092.81
2023-01-28T15:41:49.890Z,101015.66
2023-01-28T15:44:18.886Z,101105.72
2023-01-28T15:46:46.647Z,101102.94
2023-01-28T15:49:20.016Z,101100.19
2023-01-28T15:51:51.038Z,101101.72
2023-01-28T15:54:19.349Z,101078.13
2023-01-28T15:56:47.142Z,101114.41
2023-01-28T15:59:25.127Z,101066.47
2023-01-28T16:01:52.980Z,101131.38
2023-01-28T16:04:30.367Z,101145.91
2023-01-28T16:06:58.984Z,101109.53
2023-01-28T16:09:28.500Z,101146.31
2023-01-28T16:12:03.338Z,101149.47
2023-01-28T16:14:32.393Z,101149.44
2023-01-28T16:17:00.164Z,101143.25
2023-01-28T16:19:38.620Z,100914.28
2023-01-28T16:22:06.499Z,101086.78
2023-01-28T16:24:36.205Z,101161.22
2023-01-28T16:27:05.761Z,101192.25
2023-01-28T16:29:33.519Z,101177.53
2023-01-28T16:32:01.406Z,101203.94
2023-01-28T16:34:29.272Z,101187.63
2023-01-28T16:36:59.821Z,101188.22
2023-01-28T16:39:27.663Z,101181.19
2023-01-28T16:41:56.873Z,101182.69
2023-01-28T16:44:24.931Z,101115.75
2023-01-28T16:46:52.733Z,101157.59
2023-01-28T16:49:20.538Z,101196.31
2023-01-28T16:51:53.247Z,101223.97
2023-01-28T16:54:26.744Z,101141.91
2023-01-28T16:56:54.643Z,101173.38
2023-01-28T16:59:23.481Z,101209.56
2023-01-28T17:01:51.415Z,101220.38
2023-01-28T17:04:19.264Z,101204.03
2023-01-28T17:06:50.391Z,101164.53
2023-01-28T17:09:19.032Z,101179.53
2023-01-28T17:11:48.558Z,101172.34
2023-01-28T17:14:16.335Z,101174.91
2023-01-28T17:16:44.177Z,101178.22
2023-01-28T17:19:12.158Z,101171.91
2023-01-28T17:21:39.970Z,101182.38
2023-01-28T17:24:08.844Z,101127.50
2023-01-28T17:26:38.070Z,101165.22
2023-01-28T17:29:07.250Z,101177.91
2023-01-28T17:31:35.446Z,101170.94
2023-01-28T17:34:05.504Z,101185.50
2023-01-28T17:36:33.530Z,101164.75
2023-01-28T17:39:02.534Z,101187.03
2023-01-28T17:41:30.705Z,101165.38
2023-01-28T17:43:59.541Z,101170.38
2023-01-28T17:46:29.374Z,101173.78
2023-01-28T17:48:57.258Z,101164.19
2023-01-28T17:51:25.104Z,101147.78
2023-01-28T17:53:53.819Z,101180.31
2023-01-28T17:56:22.554Z,101191.44
2023-01-28T17:58:51.666Z,101209.34
2023-01-28T18:01:19.890Z,101219.53
2023-01-28T18:03:49.089Z,101228.03
2023-01-28T18:06:16.808Z,101231.44
2023-01-28T18:08:45.733Z,101218.97
2023-01-28T18:11:14.277Z,101227.03
2023-01-28T18:13:42.161Z,101221.63
2023-01-28T18:16:14.491Z,101203.91
2023-01-28T18:18:42.242Z,101170.09
2023-01-28T18:21:20.235Z,101193.44
2023-01-28T18:23:47.957Z,101235.81
2023-01-28T18:26:15.652Z,101234.88
2023-01-28T18:28:43.616Z,101234.88
2023-01-28T18:31:11.615Z,101209.81
2023-01-28T18:33:39.915Z,101220.09
2023-01-28T18:36:09.571Z,101226.53
2023-01-28T18:38:38.892Z,101230.13
2023-01-28T18:41:06.857Z,101224.00
2023-01-28T18:43:35.462Z,101235.06
2023-01-28T18:46:03.486Z,101243.50
2023-01-28T18:48:37.076Z,101205.84
2023-01-28T18:51:17.483Z,101239.03
2023-01-28T18:53:59.093Z,101221.06
2023-01-28T18:56:27.327Z,101222.03
2023-01-28T18:58:58.117Z,101244.78
2023-01-28T19:01:25.923Z,101243.88
2023-01-28T19:03:54.776Z,101241.16
2023-01-28T19:06:23.697Z,101239.81
2023-01-28T19:08:53.436Z,101250.59
2023-01-28T19:11:22.698Z,101163.66
2023-01-28T19:13:50.562Z,101247.88
2023-01-28T19:16:18.361Z,101283.09
2023-01-28T19:18:46.518Z,101245.13
2023-01-28T19:21:15.257Z,101246.69
2023-01-28T19:23:49.950Z,101244.88
2023-01-28T19:26:21.229Z,101259.53
2023-01-28T19:28:50.658Z,101250.72
2023-01-28T19:31:20.595Z,101234.91
2023-01-28T19:33:48.400Z,101255.66
2023-01-28T19:36:16.472Z,101263.44
2023-01-28T19:38:45.029Z,101245.13
2023-01-28T19:41:21.012Z,101283.06
2023-01-28T19:43:50.267Z,101265.78
2023-01-28T19:46:18.406Z,101229.84
2023-01-28T19:48:46.418Z,101268.03
2023-01-28T19:51:15.581Z,101272.25
2023-01-28T19:53:44.262Z,101273.97
2023-01-28T19:56:13.418Z,101271.28
2023-01-28T19:58:42.186Z,101272.97
2023-01-28T20:01:13.933Z,101239.94
2023-01-28T20:03:42.720Z,101280.50
2023-01-28T20:06:12.572Z,101218.09
2023-01-28T20:08:40.481Z,101255.53
2023-01-28T20:11:10.310Z,101199.63
2023-01-28T20:13:43.405Z,101269.88
2023-01-28T20:16:16.478Z,101243.34
2023-01-28T20:18:44.527Z,101286.19
2023-01-28T20:21:12.369Z,101274.94
2023-01-28T20:23:41.371Z,101250.94
2023-01-28T20:26:09.699Z,101275.50
2023-01-28T20:28:37.703Z,101283.97
2023-01-28T20:31:06.373Z,101282.22
2023-01-28T20:33:35.565Z,101231.34
2023-01-28T20:36:03.518Z,101262.03
2023-01-28T20:38:31.459Z,101258.69
2023-01-28T20:40:59.175Z,101262.03
2023-01-28T20:43:28.675Z,101247.94
2023-01-28T20:46:03.306Z,101229.94
2023-01-28T20:48:31.236Z,101256.81
2023-01-28T20:51:05.695Z,101218.81
2023-01-28T20:53:33.629Z,101242.84
2023-01-28T20:56:01.419Z,101265.13
2023-01-28T20:58:29.249Z,101223.97
2023-01-28T21:00:57.005Z,101236.66
2023-01-28T21:03:24.991Z,101232.19
2023-01-28T21:05:52.908Z,101231.34
2023-01-28T21:08:22.053Z,101228.56
2023-01-28T21:10:49.916Z,101162.06
2023-01-28T21:13:17.656Z,101238.09
2023-01-28T21:15:52.744Z,101220.28
2023-01-28T21:18:20.496Z,101234.50
2023-01-28T21:20:48.148Z,101208.00
2023-01-28T21:23:16.032Z,101224.88
2023-01-28T21:25:46.488Z,101216.91
2023-01-28T21:28:14.378Z,101221.25
2023-01-28T21:30:42.405Z,101213.41
2023-01-28T21:33:10.578Z,101209.06
2023-01-28T21:35:38.745Z,101194.81
2023-01-28T21:38:06.564Z,101215.84
2023-01-28T21:40:34.933Z,101183.75
2023-01-28T21:43:04.021Z,101218.28
2023-01-28T21:45:31.742Z,101218.28
2023-01-28T21:47:59.510Z,101213.84
2023-01-28T21:50:27.278Z,101221.47
2023-01-28T21:52:55.360Z,101216.25
2023-01-28T21:55:23.118Z,101211.34
2023-01-28T21:58:10.987Z,101222.16
2023-01-28T22:00:39.224Z,101215.22
2023-01-28T22:03:07.060Z,101209.16
2023-01-28T22:05:35.895Z,101215.94
2023-01-28T22:08:03.633Z,101205.59
2023-01-28T22:10:31.406Z,101213.25
2023-01-28T22:12:59.164Z,101215.78
2023-01-28T22:15:27.268Z,101212.28
2023-01-28T22:17:56.514Z,101212.16
2023-01-28T22:20:24.324Z,101218.19
2023-01-28T22:22:52.080Z,101220.69
2023-01-28T22:25:19.891Z,101196.41
2023-01-28T22:27:47.756Z,101235.19
2023-01-28T22:30:16.181Z,101122.19
2023-01-28T22:32:44.094Z,101101.81
2023-01-28T22:35:13.341Z,101240.03
2023-01-28T22:37:41.201Z,101234.06
2023-01-28T22:40:10.492Z,101215.16
2023-01-28T22:42:38.254Z,101228.75
2023-01-28T22:45:07.211Z,101229.78
2023-01-28T22:47:35.137Z,101238.06
2023-01-28T22:50:02.890Z,101241.47
2023-01-28T22:52:31.996Z,101289.34
2023-01-28T22:54:59.870Z,101263.81
2023-01-28T22:57:27.618Z,101222.84
2023-01-28T23:00:00.307Z,101231.00
2023-01-28T23:02:28.502Z,101196.31
2023-01-28T23:04:56.320Z,101225.75
2023-01-28T23:07:24.145Z,101205.63
2023-01-28T23:09:53.270Z,101237.56
2023-01-28T23:12:20.943Z,101231.19
2023-01-28T23:15:06.072Z,101235.81
2023-01-28T23:17:51.608Z,101220.19
2023-01-28T23:20:39.365Z,101222.75
2023-01-28T23:23:24.854Z,101215.56
2023-01-28T23:25:54.201Z,101193.53
2023-01-28T23:28:22.039Z,101229.34
2023-01-28T23:40:24.367Z,101215.31
2023-01-28T23:42:53.608Z,101223.06
2023-01-28T23:45:21.589Z,101217.00
2023-01-28T23:47:49.276Z,101207.59
2023-01-28T23:50:17.958Z,101199.59
2023-01-28T23:52:45.696Z,101141.13
2023-01-28T23:55:13.321Z,101201.47
2023-01-28T23:57:40.984Z,101201.47
